createdAt,value
2023-03-06T00:01:01.303Z,52.80
2023-03-06T00:03:28.648Z,52.80
2023-03-06T00:05:57.559Z,52.90
2023-03-06T00:08:26.602Z,52.90
2023-03-06T00:10:54.130Z,52.80
2023-03-06T00:13:21.318Z,52.90
2023-03-06T00:15:49.122Z,52.90
2023-03-06T00:18:16.474Z,52.90
2023-03-06T00:20:44.665Z,53.00
2023-03-06T00:23:13.806Z,53.00
2023-03-06T00:25:45.587Z,53.00
2023-03-06T00:28:14.880Z,53.10
2023-03-06T00:30:42.466Z,53.10
2023-03-06T00:33:09.783Z,53.10
2023-03-06T00:35:39.038Z,53.20
2023-03-06T00:38:06.216Z,53.40
2023-03-06T00:40:33.399Z,53.60
2023-03-06T00:43:00.574Z,53.70
2023-03-06T00:45:27.757Z,53.70
2023-03-06T00:47:54.940Z,54.00
2023-03-06T00:50:22.044Z,53.90
2023-03-06T00:52:49.273Z,53.90
2023-03-06T00:55:16.826Z,54.00
2023-03-06T00:57:43.978Z,54.20
2023-03-06T01:00:12.806Z,54.20
2023-03-06T01:02:40.748Z,54.20
2023-03-06T01:05:09.088Z,54.20
2023-03-06T01:07:37.078Z,54.30
2023-03-06T01:10:07.913Z,54.60
2023-03-06T01:12:35.233Z,54.40
2023-03-06T01:15:02.530Z,54.50
2023-03-06T01:17:29.930Z,54.50
2023-03-06T01:19:58.219Z,54.90
2023-03-06T01:22:25.347Z,55.20
2023-03-06T01:24:52.522Z,54.60
2023-03-06T01:27:19.646Z,54.80
2023-03-06T01:29:46.741Z,54.80
2023-03-06T01:32:13.948Z,54.70
2023-03-06T01:34:41.045Z,54.80
2023-03-06T01:37:08.152Z,54.70
2023-03-06T01:39:35.263Z,54.70
2023-03-06T01:42:02.373Z,54.70
2023-03-06T01:44:29.595Z,54.70
2023-03-06T01:46:56.853Z,54.70
2023-03-06T01:49:24.044Z,54.70
2023-03-06T01:52:06.306Z,54.70
2023-03-06T01:54:38.102Z,54.70
2023-03-06T01:57:33.636Z,54.70
2023-03-06T02:00:10.258Z,54.80
2023-03-06T02:02:38.060Z,54.70
2023-03-06T02:05:06.761Z,54.60
2023-03-06T02:07:35.582Z,54.50
2023-03-06T02:10:02.969Z,54.40
2023-03-06T02:12:30.379Z,54.30
2023-03-06T02:14:57.728Z,54.30
2023-03-06T02:17:26.174Z,54.40
2023-03-06T02:20:26.773Z,54.40
2023-03-06T02:23:14.133Z,54.30
2023-03-06T02:25:44.984Z,54.30
2023-03-06T02:28:15.294Z,54.30
2023-03-06T02:30:43.709Z,54.20
2023-03-06T02:33:15.151Z,54.10
2023-03-06T02:35:49.727Z,54.10
2023-03-06T02:38:21.163Z,54.10
2023-03-06T02:40:50.974Z,53.90
2023-03-06T02:43:23.180Z,53.80
2023-03-06T02:45:52.033Z,54.00
2023-03-06T02:48:20.015Z,53.90
2023-03-06T02:50:48.080Z,54.00
2023-03-06T02:53:17.310Z,53.80
2023-03-06T02:55:44.625Z,53.50
2023-03-06T02:58:12.143Z,53.60
2023-03-06T03:00:40.212Z,53.50
2023-03-06T03:03:08.103Z,53.70
2023-03-06T03:05:35.293Z,53.40
2023-03-06T03:08:02.588Z,53.40
2023-03-06T03:10:29.904Z,53.40
2023-03-06T03:12:58.501Z,53.30
2023-03-06T03:15:25.972Z,53.40
2023-03-06T03:17:53.297Z,53.40
2023-03-06T03:20:21.858Z,53.40
2023-03-06T03:22:55.080Z,53.40
2023-03-06T03:25:24.225Z,53.40
2023-03-06T03:27:52.081Z,53.50
2023-03-06T03:30:19.369Z,53.30
2023-03-06T03:32:46.470Z,53.20
2023-03-06T03:35:13.721Z,52.40
2023-03-06T03:37:41.215Z,52.80
2023-03-06T03:40:10.329Z,52.70
2023-03-06T03:42:37.546Z,52.50
2023-03-06T03:45:05.105Z,52.80
2023-03-06T03:47:32.208Z,52.60
2023-03-06T03:49:59.296Z,52.80
2023-03-06T03:52:26.425Z,52.60
2023-03-06T03:54:53.668Z,52.60
2023-03-06T03:57:20.744Z,52.50
2023-03-06T03:59:47.846Z,52.70
2023-03-06T04:02:15.024Z,52.50
2023-03-06T04:04:42.232Z,52.60
2023-03-06T04:07:09.977Z,52.50
2023-03-06T04:09:37.068Z,52.50
2023-03-06T04:12:04.296Z,52.60
2023-03-06T04:14:31.553Z,51.80
2023-03-06T04:16:58.740Z,52.40
2023-03-06T04:19:25.954Z,52.40
2023-03-06T04:21:53.136Z,51.80
2023-03-06T04:24:20.193Z,52.20
2023-03-06T04:26:47.296Z,52.30
2023-03-06T04:29:14.513Z,52.30
2023-03-06T04:31:41.617Z,52.30
2023-03-06T04:34:08.749Z,52.30
2023-03-06T04:36:36.704Z,52.40
2023-03-06T04:39:04.432Z,52.30
2023-03-06T04:41:31.799Z,52.40
2023-03-06T04:43:59.179Z,52.40
2023-03-06T04:46:26.416Z,52.30
2023-03-06T04:48:53.528Z,52.40
2023-03-06T04:51:20.649Z,52.50
2023-03-06T04:53:47.746Z,52.50
2023-03-06T04:56:14.847Z,52.50
2023-03-06T04:58:43.531Z,52.60
2023-03-06T05:01:12.067Z,52.60
2023-03-06T05:03:39.298Z,52.80
2023-03-06T05:06:06.776Z,53.30
2023-03-06T05:08:34.039Z,52.70
2023-03-06T05:11:02.402Z,52.80
2023-03-06T05:13:29.981Z,52.80
2023-03-06T05:16:02.533Z,52.90
2023-03-06T05:18:29.711Z,52.90
2023-03-06T05:20:59.552Z,52.90
2023-03-06T05:23:28.154Z,53.00
2023-03-06T05:25:55.681Z,53.40
2023-03-06T05:28:23.269Z,53.10
2023-03-06T05:30:50.366Z,53.00
2023-03-06T05:33:18.172Z,53.20
2023-03-06T05:35:47.409Z,53.20
2023-03-06T05:38:15.693Z,53.30
2023-03-06T05:40:44.342Z,53.20
2023-03-06T05:43:12.357Z,53.30
2023-03-06T05:45:39.977Z,53.20
2023-03-06T05:48:07.967Z,53.20
2023-03-06T05:50:35.377Z,53.10
2023-03-06T05:53:02.659Z,53.30
2023-03-06T05:55:30.274Z,53.40
2023-03-06T05:57:57.443Z,53.40
2023-03-06T06:00:25.779Z,53.40
2023-03-06T06:02:53.051Z,53.40
2023-03-06T06:05:20.192Z,53.40
2023-03-06T06:07:47.357Z,53.30
2023-03-06T06:10:15.126Z,53.20
2023-03-06T06:12:42.242Z,53.20
2023-03-06T06:15:09.707Z,53.20
2023-03-06T06:17:36.813Z,53.00
2023-03-06T06:20:04.266Z,52.80
2023-03-06T06:22:31.392Z,52.90
2023-03-06T06:24:58.471Z,52.80
2023-03-06T06:27:25.533Z,53.00
2023-03-06T06:29:52.781Z,52.20
2023-03-06T06:32:20.116Z,52.80
2023-03-06T06:34:47.283Z,52.90
2023-03-06T06:37:14.381Z,52.40
2023-03-06T06:39:41.580Z,52.10
2023-03-06T06:42:29.842Z,52.10
2023-03-06T06:44:57.297Z,52.40
2023-03-06T06:47:25.664Z,52.40
2023-03-06T06:49:54.686Z,52.20
2023-03-06T06:52:22.894Z,52.10
2023-03-06T06:54:51.416Z,52.10
2023-03-06T06:57:18.648Z,52.30
2023-03-06T06:59:45.889Z,52.20
2023-03-06T07:02:14.516Z,51.80
2023-03-06T07:04:52.745Z,51.10
2023-03-06T07:07:29.684Z,51.50
2023-03-06T07:09:57.007Z,51.60
2023-03-06T07:12:24.226Z,51.30
2023-03-06T07:14:51.390Z,51.80
2023-03-06T07:17:18.623Z,51.60
2023-03-06T07:19:45.740Z,51.90
2023-03-06T07:22:13.125Z,51.80
2023-03-06T07:24:40.347Z,52.00
2023-03-06T07:27:10.161Z,52.00
2023-03-06T07:29:37.345Z,52.10
2023-03-06T07:32:04.739Z,52.20
2023-03-06T07:34:31.941Z,52.30
2023-03-06T07:36:59.128Z,52.40
2023-03-06T07:39:28.188Z,52.50
2023-03-06T07:41:55.429Z,52.50
2023-03-06T07:44:22.899Z,52.60
2023-03-06T07:46:50.156Z,52.60
2023-03-06T07:49:17.532Z,52.70
2023-03-06T07:51:45.118Z,52.70
2023-03-06T07:54:12.315Z,52.80
2023-03-06T07:56:39.404Z,52.80
2023-03-06T07:59:06.526Z,52.80
2023-03-06T08:01:33.739Z,53.00
2023-03-06T08:04:02.085Z,53.00
2023-03-06T08:06:29.319Z,53.10
2023-03-06T08:08:56.957Z,53.20
2023-03-06T08:11:26.679Z,53.30
2023-03-06T08:13:55.019Z,53.30
2023-03-06T08:16:27.365Z,53.30
2023-03-06T08:18:54.852Z,53.30
2023-03-06T08:21:25.074Z,53.30
2023-03-06T08:23:52.233Z,53.30
2023-03-06T08:26:22.010Z,53.30
2023-03-06T08:28:51.149Z,53.40
2023-03-06T08:31:38.364Z,53.40
2023-03-06T08:34:08.097Z,53.20
2023-03-06T08:36:35.309Z,53.00
2023-03-06T08:39:02.819Z,53.30
2023-03-06T08:41:30.575Z,53.30
2023-03-06T08:43:57.729Z,53.20
2023-03-06T08:46:28.142Z,53.20
2023-03-06T08:48:55.640Z,53.20
2023-03-06T08:51:23.866Z,53.00
2023-03-06T08:53:52.236Z,53.10
2023-03-06T08:56:30.787Z,53.10
2023-03-06T08:59:00.150Z,53.10
2023-03-06T09:01:29.666Z,53.20
2023-03-06T09:04:01.563Z,53.20
2023-03-06T09:06:32.161Z,53.30
2023-03-06T09:08:59.878Z,53.30
2023-03-06T09:11:28.104Z,53.40
2023-03-06T09:13:55.888Z,53.60
2023-03-06T09:16:23.559Z,53.60
2023-03-06T09:18:52.963Z,53.80
2023-03-06T09:21:24.957Z,53.70
2023-03-06T09:23:52.369Z,53.90
2023-03-06T09:26:19.654Z,54.00
2023-03-06T09:28:47.071Z,54.00
2023-03-06T09:31:16.986Z,54.20
2023-03-06T09:33:44.399Z,54.10
2023-03-06T09:36:30.044Z,54.30
2023-03-06T09:38:57.179Z,54.30
2023-03-06T09:41:24.461Z,54.30
2023-03-06T09:43:55.113Z,54.30
2023-03-06T09:46:32.489Z,54.30
2023-03-06T09:49:10.571Z,54.30
2023-03-06T09:51:51.258Z,54.30
2023-03-06T09:54:22.653Z,54.30
2023-03-06T09:56:50.643Z,54.40
2023-03-06T09:59:21.886Z,54.50
2023-03-06T10:02:00.235Z,54.50
2023-03-06T10:04:39.616Z,54.50
2023-03-06T10:07:14.796Z,54.50
2023-03-06T10:09:51.190Z,54.40
2023-03-06T10:12:25.737Z,54.40
2023-03-06T10:14:59.699Z,54.40
2023-03-06T10:17:35.562Z,54.20
2023-03-06T10:20:16.312Z,54.30
2023-03-06T10:23:00.854Z,53.90
2023-03-06T10:25:43.727Z,54.00
2023-03-06T10:28:23.749Z,54.00
2023-03-06T10:30:59.675Z,53.80
2023-03-06T10:33:55.557Z,53.80
2023-03-06T10:36:28.938Z,53.90
2023-03-06T10:38:58.732Z,53.90
2023-03-06T10:41:36.152Z,53.90
2023-03-06T10:44:03.413Z,54.20
2023-03-06T10:46:34.497Z,53.90
2023-03-06T10:49:04.712Z,54.00
2023-03-06T10:51:33.710Z,54.00
2023-03-06T10:54:04.309Z,53.80
2023-03-06T10:56:36.170Z,54.00
2023-03-06T10:59:20.676Z,53.90
2023-03-06T11:01:50.544Z,54.10
2023-03-06T11:04:33.278Z,53.00
2023-03-06T11:07:06.484Z,52.70
2023-03-06T11:09:34.299Z,53.30
2023-03-06T11:12:43.614Z,53.40
2023-03-06T11:15:22.724Z,53.20
2023-03-06T11:18:04.527Z,53.10
2023-03-06T11:20:51.985Z,53.10
2023-03-06T11:23:53.841Z,53.40
2023-03-06T11:26:32.198Z,52.00
2023-03-06T11:29:29.245Z,52.60
2023-03-06T11:32:11.208Z,52.40
2023-03-06T11:34:40.806Z,52.30
2023-03-06T11:37:32.946Z,52.20
2023-03-06T11:40:00.101Z,52.40
2023-03-06T11:42:32.578Z,52.50
2023-03-06T11:45:25.066Z,52.10
2023-03-06T11:48:01.823Z,52.50
2023-03-06T11:50:38.745Z,52.00
2023-03-06T11:53:10.814Z,52.30
2023-03-06T11:55:45.821Z,51.90
2023-03-06T11:58:28.096Z,51.90
2023-03-06T12:01:17.111Z,51.60
2023-03-06T12:04:02.972Z,51.30
2023-03-06T12:06:42.089Z,51.30
2023-03-06T12:09:11.989Z,51.30
2023-03-06T12:11:52.179Z,50.90
2023-03-06T12:14:25.810Z,51.10
2023-03-06T12:17:06.939Z,51.10
2023-03-06T12:19:52.245Z,51.00
2023-03-06T12:22:57.898Z,50.50
2023-03-06T12:25:38.242Z,50.20
2023-03-06T12:28:19.788Z,50.10
2023-03-06T12:30:56.144Z,50.60
2023-03-06T12:33:39.387Z,50.40
2023-03-06T12:36:24.969Z,50.60
2023-03-06T12:39:20.817Z,50.60
2023-03-06T12:42:25.676Z,50.20
2023-03-06T12:45:12.106Z,50.60
2023-03-06T12:47:44.460Z,50.10
2023-03-06T12:50:38.839Z,50.40
2023-03-06T12:53:12.234Z,50.20
2023-03-06T12:55:42.464Z,50.40
2023-03-06T12:58:56.062Z,50.50
2023-03-06T13:01:42.189Z,50.40
2023-03-06T13:04:21.562Z,50.70
2023-03-06T13:07:22.989Z,50.80
2023-03-06T13:10:31.498Z,50.70
2023-03-06T13:13:01.248Z,50.80
2023-03-06T13:15:45.955Z,50.80
2023-03-06T13:18:24.238Z,50.70
2023-03-06T13:21:30.308Z,50.60
2023-03-06T13:24:05.535Z,50.70
2023-03-06T13:26:32.764Z,50.70
2023-03-06T13:29:42.234Z,50.90
2023-03-06T13:32:14.565Z,51.00
2023-03-06T13:34:50.851Z,51.00
2023-03-06T13:37:23.662Z,51.20
2023-03-06T13:39:58.959Z,51.30
2023-03-06T13:42:36.139Z,51.40
2023-03-06T13:45:35.474Z,52.30
2023-03-06T13:48:44.174Z,52.50
2023-03-06T13:50:55.593Z,52.60
2023-03-06T13:53:44.644Z,52.70
2023-03-06T13:56:34.182Z,52.90
2023-03-06T13:59:28.061Z,53.70
2023-03-06T14:02:16.150Z,53.10
2023-03-06T14:04:47.478Z,53.10
2023-03-06T14:07:31.648Z,53.10
2023-03-06T14:10:13.811Z,53.20
2023-03-06T14:12:54.746Z,53.30
2023-03-06T14:15:44.609Z,53.30
2023-03-06T14:18:21.171Z,53.50
2023-03-06T14:20:57.061Z,53.60
2023-03-06T14:23:30.899Z,53.50
2023-03-06T14:26:22.278Z,53.70
2023-03-06T14:28:52.586Z,53.70
2023-03-06T14:31:29.109Z,53.70
2023-03-06T14:33:58.617Z,53.80
2023-03-06T14:36:36.697Z,53.80
2023-03-06T14:39:13.601Z,53.90
2023-03-06T14:41:41.254Z,53.80
2023-03-06T14:44:08.320Z,54.00
2023-03-06T14:46:35.505Z,54.00
2023-03-06T14:49:07.104Z,54.00
2023-03-06T14:51:44.054Z,54.00
2023-03-06T14:54:27.885Z,54.00
2023-03-06T14:57:02.169Z,54.20
2023-03-06T14:59:33.062Z,54.30
2023-03-06T15:02:07.182Z,54.70
2023-03-06T15:04:42.081Z,54.50
2023-03-06T15:07:21.193Z,54.70
2023-03-06T15:09:51.385Z,55.00
2023-03-06T15:12:22.699Z,55.30
2023-03-06T15:14:56.036Z,55.10
2023-03-06T15:17:28.207Z,54.90
2023-03-06T15:19:57.634Z,55.10
2023-03-06T15:22:37.948Z,55.10
2023-03-06T15:25:22.789Z,55.20
2023-03-06T15:27:52.645Z,55.20
2023-03-06T15:30:27.648Z,55.50
2023-03-06T15:33:19.647Z,55.50
2023-03-06T15:35:52.712Z,55.80
2023-03-06T15:38:38.450Z,56.10
2023-03-06T15:41:20.048Z,56.10
2023-03-06T15:43:47.299Z,56.20
2023-03-06T15:46:14.731Z,56.40
2023-03-06T15:48:52.593Z,57.10
2023-03-06T15:51:19.837Z,56.70
2023-03-06T15:53:47.276Z,56.90
2023-03-06T15:56:14.576Z,56.80
2023-03-06T15:58:42.588Z,56.80
2023-03-06T16:01:16.244Z,56.90
2023-03-06T16:03:44.473Z,57.00
2023-03-06T16:06:17.209Z,57.20
2023-03-06T16:08:44.770Z,57.20
2023-03-06T16:11:41.840Z,57.10
2023-03-06T16:14:23.935Z,57.30
2023-03-06T16:16:54.190Z,57.50
2023-03-06T16:19:27.834Z,58.10
2023-03-06T16:21:56.091Z,58.20
2023-03-06T16:24:24.825Z,57.90
2023-03-06T16:26:53.892Z,58.10
2023-03-06T16:29:26.507Z,58.20
2023-03-06T16:31:55.407Z,58.30
2023-03-06T16:34:22.995Z,58.30
2023-03-06T16:36:50.868Z,58.80
2023-03-06T16:39:20.648Z,58.70
2023-03-06T16:41:49.473Z,58.80
2023-03-06T16:44:16.667Z,59.00
2023-03-06T16:46:46.193Z,59.00
2023-03-06T16:49:18.803Z,59.30
2023-03-06T16:51:46.039Z,59.30
2023-03-06T16:54:13.366Z,59.30
2023-03-06T16:56:40.713Z,59.60
2023-03-06T16:59:08.268Z,59.70
2023-03-06T17:01:39.585Z,61.00
2023-03-06T17:04:06.748Z,61.50
2023-03-06T17:06:33.876Z,60.90
2023-03-06T17:09:01.012Z,61.30
2023-03-06T17:11:28.574Z,61.20
2023-03-06T17:13:55.961Z,61.50
2023-03-06T17:16:23.162Z,62.00
2023-03-06T17:18:50.852Z,61.80
2023-03-06T17:21:18.013Z,61.90
2023-03-06T17:23:45.988Z,63.20
2023-03-06T17:26:18.201Z,62.10
2023-03-06T17:28:46.036Z,62.30
2023-03-06T17:31:21.913Z,62.60
2023-03-06T17:33:49.720Z,62.30
2023-03-06T17:36:19.213Z,62.30
2023-03-06T17:38:46.496Z,62.10
2023-03-06T17:41:13.947Z,62.10
2023-03-06T17:43:41.516Z,62.40
2023-03-06T17:46:11.643Z,62.40
2023-03-06T17:48:39.677Z,62.60
2023-03-06T17:51:07.582Z,62.50
2023-03-06T17:53:34.889Z,62.80
2023-03-06T17:56:07.455Z,62.60
2023-03-06T17:58:35.396Z,63.10
2023-03-06T18:01:13.201Z,63.50
2023-03-06T18:03:44.442Z,63.10
2023-03-06T18:06:12.142Z,63.40
2023-03-06T18:08:41.558Z,63.50
2023-03-06T18:11:10.006Z,63.50
2023-03-06T18:13:42.581Z,63.50
2023-03-06T18:16:13.735Z,63.50
2023-03-06T18:18:42.428Z,63.80
2023-03-06T18:21:12.540Z,63.90
2023-03-06T18:23:41.288Z,63.80
2023-03-06T18:26:13.924Z,63.90
2023-03-06T18:28:44.554Z,63.60
2023-03-06T18:31:14.888Z,63.60
2023-03-06T18:33:42.970Z,63.90
2023-03-06T18:36:10.374Z,63.80
2023-03-06T18:38:39.716Z,64.70
2023-03-06T18:41:08.622Z,65.00
2023-03-06T18:43:39.068Z,66.20
2023-03-06T18:46:06.851Z,66.40
2023-03-06T18:48:34.557Z,66.10
2023-03-06T18:51:10.350Z,66.30
2023-03-06T18:53:37.936Z,66.60
2023-03-06T18:56:05.357Z,66.60
2023-03-06T18:58:32.858Z,67.10
2023-03-06T19:01:02.258Z,66.30
2023-03-06T19:03:29.481Z,66.30
2023-03-06T19:05:56.561Z,66.50
2023-03-06T19:08:24.937Z,66.60
2023-03-06T19:10:52.155Z,66.60
2023-03-06T19:13:19.313Z,66.80
2023-03-06T19:15:49.276Z,67.20
2023-03-06T19:18:18.364Z,68.20
2023-03-06T19:20:45.606Z,67.80
2023-03-06T19:23:13.498Z,68.00
2023-03-06T19:25:41.681Z,67.70
2023-03-06T19:28:08.788Z,67.80
2023-03-06T19:30:42.462Z,68.40
2023-03-06T19:33:09.570Z,69.00
2023-03-06T19:35:36.779Z,68.80
2023-03-06T19:38:04.492Z,68.70
2023-03-06T19:40:35.302Z,68.40
2023-03-06T19:43:03.142Z,68.70
2023-03-06T19:45:30.569Z,68.70
2023-03-06T19:48:00.924Z,68.80
2023-03-06T19:50:31.214Z,69.10
2023-03-06T19:53:00.642Z,69.10
2023-03-06T19:55:30.123Z,69.90
2023-03-06T19:57:57.814Z,69.50
2023-03-06T20:00:25.006Z,69.30
2023-03-06T20:02:52.196Z,69.20
2023-03-06T20:05:20.607Z,69.20
2023-03-06T20:07:47.783Z,69.30
2023-03-06T20:10:17.564Z,69.10
2023-03-06T20:12:45.147Z,69.40
2023-03-06T20:15:13.063Z,69.30
2023-03-06T20:17:40.768Z,69.10
2023-03-06T20:20:11.687Z,69.30
2023-03-06T20:22:38.792Z,69.40
2023-03-06T20:25:06.262Z,69.50
2023-03-06T20:27:33.786Z,69.40
2023-03-06T20:30:01.108Z,69.10
2023-03-06T20:32:28.359Z,69.40
2023-03-06T20:34:55.482Z,69.50
2023-03-06T20:37:22.653Z,69.40
2023-03-06T20:39:49.804Z,69.30
2023-03-06T20:42:17.784Z,69.70
2023-03-06T20:44:44.926Z,69.70
2023-03-06T20:47:12.097Z,69.70
2023-03-06T20:49:39.271Z,69.60
2023-03-06T20:52:06.380Z,70.40
2023-03-06T20:54:34.476Z,69.80
2023-03-06T20:57:01.783Z,69.80
2023-03-06T20:59:28.910Z,69.60
2023-03-06T21:01:56.019Z,69.50
2023-03-06T21:04:23.247Z,70.90
2023-03-06T21:06:53.140Z,70.40
2023-03-06T21:09:20.260Z,70.30
2023-03-06T21:11:47.782Z,70.30
2023-03-06T21:14:15.373Z,70.10
2023-03-06T21:16:42.895Z,69.80
2023-03-06T21:19:10.292Z,69.80
2023-03-06T21:21:37.495Z,69.90
2023-03-06T21:24:04.819Z,70.30
2023-03-06T21:26:36.288Z,70.40
2023-03-06T21:29:04.000Z,70.10
2023-03-06T21:31:31.912Z,70.20
2023-03-06T21:33:59.514Z,70.40
2023-03-06T21:36:27.748Z,70.70
2023-03-06T21:38:55.273Z,70.70
2023-03-06T21:41:27.814Z,70.70
2023-03-06T21:44:03.668Z,70.70
2023-03-06T21:46:31.403Z,70.80
2023-03-06T21:48:58.994Z,70.80
2023-03-06T21:51:27.227Z,70.80
2023-03-06T21:53:54.995Z,70.50
2023-03-06T21:56:25.517Z,70.40
2023-03-06T21:58:53.025Z,70.30
2023-03-06T22:01:23.748Z,70.40
2023-03-06T22:03:51.503Z,70.20
2023-03-06T22:06:25.440Z,70.10
2023-03-06T22:08:54.086Z,70.00
2023-03-06T22:11:23.366Z,69.90
2023-03-06T22:13:50.787Z,70.10
2023-03-06T22:16:18.593Z,70.10
2023-03-06T22:18:47.492Z,69.80
2023-03-06T22:21:16.511Z,70.20
2023-03-06T22:23:43.848Z,70.00
2023-03-06T22:26:14.415Z,70.80
2023-03-06T22:28:42.322Z,70.50
2023-03-06T22:31:15.591Z,70.20
2023-03-06T22:33:43.423Z,69.90
2023-03-06T22:36:13.335Z,69.80
2023-03-06T22:38:42.773Z,69.60
2023-03-06T22:41:10.875Z,69.70
2023-03-06T22:43:38.023Z,69.60
2023-03-06T22:46:16.676Z,69.60
2023-03-06T22:48:44.864Z,69.70
2023-03-06T22:51:14.623Z,69.60
2023-03-06T22:53:42.406Z,69.60
2023-03-06T22:56:15.642Z,69.90
2023-03-06T22:58:44.821Z,69.80
2023-03-06T23:01:20.402Z,69.80
2023-03-06T23:03:50.230Z,69.60
2023-03-06T23:06:20.332Z,69.60
2023-03-06T23:09:01.809Z,69.70
2023-03-06T23:11:29.923Z,69.60
2023-03-06T23:13:58.100Z,69.60
2023-03-06T23:16:26.073Z,69.80
2023-03-06T23:18:53.529Z,69.60
2023-03-06T23:21:23.040Z,69.50
2023-03-06T23:23:52.749Z,69.50
2023-03-06T23:26:25.520Z,69.80
2023-03-06T23:28:53.127Z,70.00
2023-03-06T23:31:23.049Z,70.00
2023-03-06T23:33:50.632Z,70.10
2023-03-06T23:36:18.790Z,70.20
2023-03-06T23:38:46.645Z,69.80
2023-03-06T23:41:16.624Z,69.70
2023-03-06T23:43:44.387Z,69.70
2023-03-06T23:46:11.823Z,69.60
2023-03-06T23:48:40.707Z,69.50
2023-03-06T23:51:09.757Z,69.50
2023-03-06T23:53:36.837Z,69.40
2023-03-06T23:56:06.515Z,69.40
2023-03-06T23:58:33.942Z,69.50
